Time;durP1;ratioP1;P1;durP2;ratioP2;P2;SDS_P1;SDS_P2;PMS_P1;PMS_P2;Temp;Humidity;BMP_temperature;BMP_pressure;BME280_temperature;BME280_humidity;BME280_pressure;Samples;Min_cycle;Max_cycle;Signal;HPM_P1;HPM_P2
2022/10/22 00:00:33;;;;;;;6.65;3.13;;;17.90;67.60;;;;;;5043696;28;21049;-52
2022/10/22 00:03:00;;;;;;;6.57;3.22;;;17.90;67.70;;;;;;5045142;28;20424;-51
2022/10/22 00:05:28;;;;;;;5.30;2.88;;;17.90;67.70;;;;;;5038036;28;20057;-52
2022/10/22 00:07:55;;;;;;;5.05;3.20;;;17.90;67.90;;;;;;5044771;28;20061;-52
2022/10/22 00:10:22;;;;;;;8.38;3.65;;;17.90;67.90;;;;;;5042827;28;20053;-52
2022/10/22 00:12:51;;;;;;;4.70;2.90;;;17.90;68.00;;;;;;5044359;28;20404;-50
2022/10/22 00:15:18;;;;;;;8.88;3.88;;;17.90;68.00;;;;;;5044498;28;20053;-51
2022/10/22 00:17:45;;;;;;;7.32;2.80;;;17.90;68.00;;;;;;5045155;28;20053;-50
2022/10/22 00:20:13;;;;;;;6.65;3.70;;;17.90;68.00;;;;;;5041667;28;20047;-53
2022/10/22 00:22:40;;;;;;;6.45;3.30;;;17.90;68.10;;;;;;5043143;28;20060;-51
2022/10/22 00:25:08;;;;;;;8.68;3.53;;;17.90;68.20;;;;;;5043404;28;20068;-52
2022/10/22 00:27:35;;;;;;;4.10;2.58;;;17.90;68.20;;;;;;5044676;28;20078;-51
2022/10/22 00:30:04;;;;;;;5.82;2.63;;;17.90;68.20;;;;;;5044181;28;20424;-50
2022/10/22 00:32:32;;;;;;;5.15;3.08;;;18.00;68.40;;;;;;5043412;28;20491;-50
2022/10/22 00:34:59;;;;;;;4.75;2.90;;;17.90;68.20;;;;;;5045559;28;20068;-52
2022/10/22 00:37:26;;;;;;;7.80;3.45;;;18.00;68.30;;;;;;5044490;28;20511;-50
2022/10/22 00:39:53;;;;;;;4.57;2.72;;;17.90;68.30;;;;;;5043589;28;20060;-51
2022/10/22 00:42:23;;;;;;;9.38;2.92;;;18.00;68.40;;;;;;5041111;28;20056;-52
2022/10/22 00:45:19;;;;;;;7.00;2.72;;;17.90;68.40;;;;;;5043968;28;20056;-52
2022/10/22 00:47:50;;;;;;;7.93;3.35;;;18.00;68.50;;;;;;5044354;28;20056;-51
2022/10/22 00:50:21;;;;;;;8.38;2.60;;;18.00;68.40;;;;;;5042432;28;20410;-52
2022/10/22 00:52:48;;;;;;;8.23;3.00;;;18.00;68.30;;;;;;5042297;28;20052;-51
2022/10/22 00:55:17;;;;;;;9.50;3.60;;;18.00;68.30;;;;;;5042397;28;20068;-52
2022/10/22 00:57:45;;;;;;;7.45;3.50;;;18.00;68.40;;;;;;5044072;28;20072;-51
2022/10/22 01:00:13;;;;;;;9.13;3.25;;;18.00;68.50;;;;;;5040401;28;20060;-49
2022/10/22 01:02:42;;;;;;;6.22;3.58;;;18.00;68.50;;;;;;5044456;28;20064;-51
2022/10/22 01:05:10;;;;;;;5.60;2.83;;;18.00;68.60;;;;;;5044956;28;20061;-51
2022/10/22 01:07:41;;;;;;;6.60;2.78;;;18.00;68.70;;;;;;5041407;28;20061;-51
2022/10/22 01:10:18;;;;;;;5.70;3.00;;;18.00;68.60;;;;;;5041895;28;20060;-50
2022/10/22 01:12:54;;;;;;;5.75;3.00;;;18.10;68.70;;;;;;5043207;28;20053;-50
2022/10/22 01:15:28;;;;;;;6.85;3.17;;;18.00;68.60;;;;;;5040467;28;20160;-48
2022/10/22 01:18:01;;;;;;;5.97;3.28;;;18.10;68.60;;;;;;5043582;28;20508;-50
2022/10/22 01:20:53;;;;;;;8.65;3.38;;;18.10;68.60;;;;;;5041875;28;20424;-51
2022/10/22 01:23:47;;;;;;;4.85;2.63;;;18.10;68.60;;;;;;5043412;28;20504;-49
2022/10/22 01:26:25;;;;;;;8.83;3.60;;;18.10;68.50;;;;;;5043094;28;20417;-52
2022/10/22 01:29:01;;;;;;;5.00;2.97;;;18.10;68.40;;;;;;5042875;28;20495;-50
2022/10/22 01:31:32;;;;;;;4.50;3.30;;;18.10;68.40;;;;;;5043801;28;20405;-50
2022/10/22 01:34:01;;;;;;;8.23;3.28;;;18.10;68.30;;;;;;5044122;28;20416;-51
2022/10/22 01:36:30;;;;;;;9.48;3.25;;;18.10;68.40;;;;;;5042477;28;20053;-51
2022/10/22 01:39:00;;;;;;;10.48;2.97;;;18.10;68.40;;;;;;5038580;28;20080;-52
2022/10/22 01:41:29;;;;;;;8.05;2.95;;;18.10;68.30;;;;;;5042250;28;20057;-50
2022/10/22 01:43:57;;;;;;;6.50;3.30;;;18.10;68.30;;;;;;5040470;28;20055;-51
2022/10/22 01:46:27;;;;;;;7.10;3.33;;;18.10;68.30;;;;;;5043034;28;20511;-51
2022/10/22 01:49:20;;;;;;;5.13;3.15;;;18.10;68.30;;;;;;5044009;28;20049;-50
2022/10/22 01:51:57;;;;;;;9.18;3.85;;;18.10;68.40;;;;;;5042282;28;20382;-49
2022/10/22 01:54:34;;;;;;;6.82;3.47;;;18.10;68.30;;;;;;5042195;28;20053;-51
2022/10/22 01:57:09;;;;;;;6.10;3.28;;;18.10;68.30;;;;;;5043391;28;20069;-51
2022/10/22 01:59:48;;;;;;;5.45;3.53;;;18.10;68.30;;;;;;5042465;28;20068;-52
2022/10/22 02:02:28;;;;;;;7.50;3.53;;;18.10;68.30;;;;;;5038828;28;20041;-51
2022/10/22 02:05:00;;;;;;;6.78;3.17;;;18.10;68.30;;;;;;5043236;28;20061;-50
2022/10/22 02:07:32;;;;;;;5.47;2.85;;;18.10;68.20;;;;;;5043103;28;20416;-51
2022/10/22 02:10:00;;;;;;;4.32;3.00;;;18.10;68.10;;;;;;5041589;28;20087;-48
2022/10/22 02:12:31;;;;;;;6.80;3.40;;;18.10;68.10;;;;;;5041437;28;20048;-51
2022/10/22 02:15:02;;;;;;;5.47;2.92;;;18.10;68.10;;;;;;5040678;28;20501;-51
2022/10/22 02:17:34;;;;;;;6.72;3.38;;;18.10;68.10;;;;;;5034717;28;20057;-52
2022/10/22 02:20:06;;;;;;;8.43;3.20;;;18.10;68.10;;;;;;5037483;28;20063;-51
2022/10/22 02:22:35;;;;;;;7.53;3.03;;;18.10;68.10;;;;;;5043259;28;20053;-51
2022/10/22 02:25:03;;;;;;;10.02;4.15;;;18.10;68.10;;;;;;5041556;28;20067;-51
2022/10/22 02:27:34;;;;;;;6.18;3.08;;;18.10;68.10;;;;;;5039101;28;20057;-50
2022/10/22 02:30:06;;;;;;;5.88;3.30;;;18.10;68.10;;;;;;5038820;28;20056;-52
2022/10/22 02:32:48;;;;;;;10.13;3.42;;;18.10;68.00;;;;;;5041353;28;20408;-51
2022/10/22 02:35:22;;;;;;;9.13;3.05;;;18.10;68.00;;;;;;5042545;28;20420;-52
2022/10/22 02:37:51;;;;;;;5.32;3.72;;;18.10;67.80;;;;;;5040580;28;20146;-47
2022/10/22 02:40:19;;;;;;;5.40;3.30;;;18.10;67.80;;;;;;5038007;28;20053;-47
2022/10/22 02:42:47;;;;;;;6.28;3.20;;;18.10;67.80;;;;;;5039741;28;20049;-50
2022/10/22 02:45:17;;;;;;;7.07;3.08;;;18.00;67.70;;;;;;5038629;28;20055;-48
2022/10/22 02:47:45;;;;;;;7.72;3.40;;;18.10;67.80;;;;;;5041999;28;20519;-49
2022/10/22 02:50:12;;;;;;;5.10;3.42;;;18.00;67.70;;;;;;5043030;28;20515;-49
2022/10/22 02:52:39;;;;;;;6.22;3.60;;;18.00;67.70;;;;;;5041897;28;20060;-50
2022/10/22 02:55:07;;;;;;;8.55;3.17;;;18.00;67.70;;;;;;5043668;28;20064;-51
2022/10/22 02:57:35;;;;;;;4.90;3.67;;;18.00;67.80;;;;;;5043790;28;20352;-53
2022/10/22 03:00:02;;;;;;;11.48;4.25;;;18.00;67.70;;;;;;5044866;28;20084;-52
2022/10/22 03:02:30;;;;;;;3.90;3.17;;;18.00;67.80;;;;;;5047208;28;20488;-52
2022/10/22 03:04:58;;;;;;;10.07;3.42;;;18.00;67.80;;;;;;5046723;28;20507;-50
2022/10/22 03:07:25;;;;;;;7.75;3.75;;;18.00;67.70;;;;;;5046581;28;20057;-52
2022/10/22 03:09:52;;;;;;;5.57;3.42;;;18.00;67.70;;;;;;5046071;28;20049;-52
2022/10/22 03:12:20;;;;;;;7.50;3.38;;;18.00;67.70;;;;;;5047482;28;20056;-51
2022/10/22 03:14:47;;;;;;;6.85;4.25;;;17.90;67.60;;;;;;5047583;28;20524;-51
2022/10/22 03:17:14;;;;;;;7.68;4.70;;;18.00;67.60;;;;;;5046449;28;20059;-50
2022/10/22 03:19:43;;;;;;;9.07;4.85;;;18.00;67.60;;;;;;5047089;28;20378;-53
2022/10/22 03:22:15;;;;;;;6.25;4.35;;;17.90;67.60;;;;;;5045598;28;20064;-50
2022/10/22 03:24:45;;;;;;;7.85;4.40;;;17.90;67.70;;;;;;5045381;28;20400;-51
2022/10/22 03:27:16;;;;;;;8.23;4.13;;;17.90;67.80;;;;;;5045056;28;20550;-53
2022/10/22 03:29:45;;;;;;;8.52;4.35;;;17.90;67.80;;;;;;5046082;28;20057;-50
2022/10/22 03:32:13;;;;;;;10.05;4.75;;;17.90;67.90;;;;;;5046234;28;20401;-50
2022/10/22 03:34:40;;;;;;;11.13;5.05;;;17.90;68.10;;;;;;5046122;28;20045;-52
2022/10/22 03:37:09;;;;;;;7.10;4.22;;;17.90;68.20;;;;;;5046088;28;20059;-47
2022/10/22 03:39:37;;;;;;;12.48;4.93;;;17.90;68.20;;;;;;5042786;28;20143;-52
2022/10/22 03:42:06;;;;;;;10.15;4.85;;;17.90;68.30;;;;;;5046191;28;20515;-51
2022/10/22 03:44:35;;;;;;;9.20;4.90;;;17.90;68.30;;;;;;5043542;28;20045;-52
2022/10/22 03:47:02;;;;;;;7.15;3.80;;;17.90;68.20;;;;;;5041359;28;20480;-51
2022/10/22 03:49:30;;;;;;;9.27;4.53;;;17.90;68.20;;;;;;5043561;28;20048;-50
2022/10/22 03:51:57;;;;;;;7.50;3.95;;;17.90;68.20;;;;;;5032288;28;20057;-51
2022/10/22 03:54:25;;;;;;;7.10;4.70;;;17.90;68.10;;;;;;5056320;28;20400;-52
2022/10/22 03:56:53;;;;;;;9.23;4.28;;;17.90;68.10;;;;;;5056850;28;20056;-52
2022/10/22 03:59:20;;;;;;;11.63;4.68;;;17.90;68.00;;;;;;5057768;28;20516;-53
2022/10/22 04:01:47;;;;;;;9.45;4.63;;;17.90;67.90;;;;;;5038863;28;20060;-53
2022/10/22 04:04:14;;;;;;;11.05;4.47;;;17.90;67.80;;;;;;5057221;28;20416;-51
2022/10/22 04:06:42;;;;;;;8.93;4.38;;;17.90;67.60;;;;;;5064322;28;20404;-52
2022/10/22 04:09:09;;;;;;;7.03;4.45;;;17.90;67.60;;;;;;5063461;28;20060;-51
2022/10/22 04:11:38;;;;;;;6.70;3.95;;;17.80;67.40;;;;;;5044736;28;20055;-53
2022/10/22 04:14:05;;;;;;;8.75;4.13;;;17.90;67.40;;;;;;5056129;28;20048;-52
2022/10/22 04:16:33;;;;;;;6.28;3.80;;;17.80;67.20;;;;;;5041591;28;20049;-49
2022/10/22 04:19:00;;;;;;;7.75;4.60;;;17.80;67.20;;;;;;5052190;28;20495;-52
2022/10/22 04:21:27;;;;;;;6.05;4.25;;;17.80;67.00;;;;;;5042111;28;20061;-52
2022/10/22 04:23:54;;;;;;;12.00;4.70;;;17.70;66.90;;;;;;5044818;28;20057;-50
2022/10/22 04:26:22;;;;;;;9.90;4.07;;;17.70;66.80;;;;;;5044915;28;20061;-50
2022/10/22 04:28:52;;;;;;;4.70;4.00;;;17.70;66.70;;;;;;5043613;28;20053;-52
2022/10/22 04:31:21;;;;;;;5.30;3.95;;;17.70;66.60;;;;;;5037931;28;20068;-52
2022/10/22 04:33:52;;;;;;;7.82;4.82;;;17.70;66.70;;;;;;5040005;28;20052;-53
2022/10/22 04:36:20;;;;;;;10.00;4.75;;;17.70;66.60;;;;;;5038646;28;20049;-51
2022/10/22 04:38:51;;;;;;;10.40;4.47;;;17.60;66.60;;;;;;5040713;28;20057;-51
2022/10/22 04:41:22;;;;;;;12.52;4.75;;;17.60;66.60;;;;;;5041716;28;20068;-53
2022/10/22 04:43:51;;;;;;;6.88;4.53;;;17.60;66.50;;;;;;5045510;28;20053;-51
2022/10/22 04:46:18;;;;;;;7.82;4.57;;;17.60;66.50;;;;;;5035670;28;20068;-51
2022/10/22 04:48:46;;;;;;;8.75;4.80;;;17.60;66.50;;;;;;5032253;28;20394;-51
2022/10/22 04:51:15;;;;;;;6.97;4.72;;;17.50;66.50;;;;;;5041099;28;20055;-50
2022/10/22 04:53:43;;;;;;;7.55;4.82;;;17.50;66.50;;;;;;5042539;28;20053;-52
2022/10/22 04:56:15;;;;;;;5.72;4.60;;;17.50;66.50;;;;;;5043799;28;20056;-52
2022/10/22 04:58:43;;;;;;;7.82;5.00;;;17.40;66.40;;;;;;5044707;28;20408;-52
2022/10/22 05:01:14;;;;;;;10.02;5.40;;;17.40;66.40;;;;;;5041540;28;20064;-52
2022/10/22 05:03:41;;;;;;;9.15;5.55;;;17.40;66.40;;;;;;5039069;28;20049;-52
2022/10/22 05:06:09;;;;;;;7.35;4.97;;;17.40;66.50;;;;;;5049623;28;20060;-51
2022/10/22 05:08:37;;;;;;;12.40;6.07;;;17.40;66.40;;;;;;5041633;28;20053;-52
2022/10/22 05:11:11;;;;;;;8.10;5.97;;;17.40;66.40;;;;;;5057172;28;20049;-52
2022/10/22 05:13:38;;;;;;;7.38;5.03;;;17.30;66.20;;;;;;5044291;28;20052;-48
2022/10/22 05:16:06;;;;;;;5.63;4.78;;;17.30;66.20;;;;;;5044625;28;20052;-52
2022/10/22 05:18:36;;;;;;;7.13;5.43;;;17.30;66.20;;;;;;5043205;28;20067;-51
2022/10/22 05:21:04;;;;;;;7.05;5.30;;;17.30;66.10;;;;;;5039649;28;20397;-50
2022/10/22 05:23:31;;;;;;;7.53;5.32;;;17.30;66.10;;;;;;5038401;28;20595;-52
2022/10/22 05:26:02;;;;;;;8.27;5.68;;;17.30;66.10;;;;;;5042450;28;20061;-53
2022/10/22 05:28:30;;;;;;;7.68;5.55;;;17.20;66.00;;;;;;5041531;28;20399;-52
2022/10/22 05:30:59;;;;;;;9.07;5.72;;;17.20;66.00;;;;;;5040932;28;20055;-52
2022/10/22 05:33:26;;;;;;;6.50;5.47;;;17.20;66.00;;;;;;5043787;28;20064;-49
2022/10/22 05:35:55;;;;;;;12.02;5.80;;;17.20;65.90;;;;;;5044335;28;20053;-52
2022/10/22 05:38:23;;;;;;;34.85;17.98;;;17.10;65.70;;;;;;5029101;28;20076;-52
2022/10/22 05:40:59;;;;;;;53.33;27.85;;;17.10;65.90;;;;;;5034645;28;20057;-52
2022/10/22 05:43:27;;;;;;;20.02;12.38;;;17.10;65.90;;;;;;5047130;28;20408;-51
2022/10/22 05:45:54;;;;;;;19.10;8.32;;;17.10;65.90;;;;;;5038727;28;20052;-53
2022/10/22 05:48:21;;;;;;;8.70;6.38;;;17.00;65.90;;;;;;5044380;28;20060;-52
2022/10/22 05:50:50;;;;;;;13.93;6.43;;;17.10;66.20;;;;;;5041250;28;20404;-52
2022/10/22 05:53:19;;;;;;;10.25;7.07;;;17.00;66.10;;;;;;5042931;28;20075;-50
2022/10/22 05:55:46;;;;;;;13.93;6.55;;;17.00;66.10;;;;;;5041507;28;20056;-51
2022/10/22 05:58:14;;;;;;;8.65;5.07;;;17.00;66.20;;;;;;5040050;28;20053;-52
2022/10/22 06:00:41;;;;;;;8.05;6.38;;;17.00;66.30;;;;;;5040157;28;20496;-53
2022/10/22 06:03:09;;;;;;;7.88;5.15;;;17.00;66.40;;;;;;5040258;28;20443;-49
2022/10/22 06:05:37;;;;;;;6.82;5.18;;;16.90;66.40;;;;;;5036317;28;21390;-53
2022/10/22 06:08:05;;;;;;;11.73;7.45;;;16.90;66.50;;;;;;5035955;28;20436;-52
2022/10/22 06:10:33;;;;;;;34.03;18.10;;;16.90;66.50;;;;;;5030847;28;20045;-52
2022/10/22 06:13:02;;;;;;;26.15;16.02;;;16.90;66.50;;;;;;5059181;28;20511;-52
2022/10/22 06:15:29;;;;;;;18.02;10.70;;;16.90;66.50;;;;;;5043044;28;20436;-51
2022/10/22 06:17:56;;;;;;;12.60;7.97;;;16.90;66.50;;;;;;5042820;28;20064;-51
2022/10/22 06:20:23;;;;;;;8.13;6.30;;;16.90;66.50;;;;;;5034902;28;20049;-52
2022/10/22 06:22:51;;;;;;;7.50;5.20;;;16.90;66.60;;;;;;5058787;28;20048;-53
2022/10/22 06:25:18;;;;;;;15.65;5.00;;;16.90;66.60;;;;;;5045243;28;20048;-52
2022/10/22 06:27:51;;;;;;;4.90;4.30;;;16.90;66.60;;;;;;5043821;28;20049;-51
2022/10/22 06:30:18;;;;;;;6.72;4.45;;;16.80;66.60;;;;;;5040124;28;20059;-50
2022/10/22 06:32:45;;;;;;;6.80;4.45;;;16.80;66.60;;;;;;5038772;28;20081;-52
2022/10/22 06:35:12;;;;;;;11.00;4.10;;;16.90;66.80;;;;;;5039565;28;20048;-51
2022/10/22 06:37:40;;;;;;;7.10;3.90;;;16.80;66.80;;;;;;5030914;28;20061;-51
2022/10/22 06:40:09;;;;;;;7.80;3.80;;;16.90;67.00;;;;;;5026701;28;20451;-52
2022/10/22 06:42:37;;;;;;;6.55;4.15;;;16.80;67.00;;;;;;5024845;28;20412;-52
2022/10/22 06:45:07;;;;;;;9.00;3.95;;;16.90;67.20;;;;;;5026142;28;20049;-51
2022/10/22 06:47:34;;;;;;;7.40;3.78;;;16.80;67.20;;;;;;5025991;28;20049;-51
2022/10/22 06:50:01;;;;;;;5.60;4.15;;;16.90;67.40;;;;;;5024741;28;20050;-51
2022/10/22 06:52:29;;;;;;;5.50;4.55;;;16.90;67.60;;;;;;5022453;28;20049;-53
2022/10/22 06:54:56;;;;;;;5.22;3.72;;;16.90;67.90;;;;;;5046413;28;20044;-52
2022/10/22 06:57:23;;;;;;;7.68;4.53;;;16.90;67.90;;;;;;5047669;28;20072;-50
2022/10/22 06:59:50;;;;;;;6.75;4.03;;;17.00;68.10;;;;;;5040772;28;20057;-51
2022/10/22 07:02:19;;;;;;;6.82;4.43;;;17.00;68.20;;;;;;5040060;28;20052;-53
2022/10/22 07:04:46;;;;;;;8.20;5.25;;;17.00;68.30;;;;;;5022505;28;20045;-52
2022/10/22 07:07:14;;;;;;;6.68;4.70;;;17.00;68.50;;;;;;5048363;28;20059;-53
2022/10/22 07:09:44;;;;;;;8.23;4.78;;;17.00;68.50;;;;;;5025240;28;20936;-52
2022/10/22 07:12:12;;;;;;;8.75;4.85;;;17.10;68.60;;;;;;5029522;28;20053;-48
2022/10/22 07:14:39;;;;;;;6.50;4.28;;;17.10;68.80;;;;;;5046047;28;20060;-52
2022/10/22 07:17:07;;;;;;;12.55;4.40;;;17.10;68.80;;;;;;5032838;28;20056;-53
2022/10/22 07:19:35;;;;;;;6.80;4.35;;;17.20;68.80;;;;;;5037065;28;20049;-51
2022/10/22 07:22:03;;;;;;;5.65;3.83;;;17.20;68.90;;;;;;5041322;28;20067;-53
2022/10/22 07:24:30;;;;;;;5.63;3.58;;;17.20;68.80;;;;;;5041044;28;20060;-53
2022/10/22 07:26:57;;;;;;;6.70;3.95;;;17.20;68.70;;;;;;5029884;28;20057;-48
2022/10/22 07:29:25;;;;;;;7.78;3.88;;;17.20;68.70;;;;;;5053396;28;20049;-52
2022/10/22 07:31:52;;;;;;;6.18;3.80;;;17.30;68.70;;;;;;5031695;28;20062;-52
2022/10/22 07:34:19;;;;;;;6.70;3.88;;;17.30;68.70;;;;;;5062276;28;20483;-53
2022/10/22 07:36:48;;;;;;;6.05;3.60;;;17.30;68.50;;;;;;5055236;28;20397;-52
2022/10/22 07:39:15;;;;;;;4.07;3.50;;;17.30;68.50;;;;;;5027979;28;20057;-52
2022/10/22 07:41:42;;;;;;;6.78;3.30;;;17.30;68.40;;;;;;5037481;28;20531;-53
2022/10/22 07:44:10;;;;;;;4.40;3.45;;;17.30;68.40;;;;;;5043085;28;20057;-52
2022/10/22 07:46:37;;;;;;;6.82;3.25;;;17.30;68.40;;;;;;5046848;28;20056;-52
2022/10/22 07:49:04;;;;;;;6.70;3.42;;;17.40;68.50;;;;;;5044180;28;20057;-52
2022/10/22 07:51:31;;;;;;;5.15;3.58;;;17.40;68.60;;;;;;5044098;28;20044;-49
2022/10/22 07:54:00;;;;;;;6.80;3.65;;;17.40;68.70;;;;;;5042746;28;20060;-50
2022/10/22 07:56:27;;;;;;;7.18;3.72;;;17.40;68.90;;;;;;5039864;28;20045;-51
2022/10/22 07:58:54;;;;;;;5.18;3.25;;;17.40;69.10;;;;;;5045617;28;20060;-50
2022/10/22 08:01:22;;;;;;;6.50;3.30;;;17.40;69.00;;;;;;5039832;28;20884;-52
2022/10/22 08:03:49;;;;;;;6.50;3.58;;;17.40;69.10;;;;;;5042236;28;20530;-53
2022/10/22 08:06:16;;;;;;;6.43;3.70;;;17.50;69.30;;;;;;5044401;28;20049;-51
2022/10/22 08:08:45;;;;;;;15.85;4.45;;;17.50;69.50;;;;;;5043538;28;20475;-51
2022/10/22 08:11:14;;;;;;;9.40;3.75;;;17.50;69.80;;;;;;5034525;28;21159;-51
2022/10/22 08:13:41;;;;;;;11.23;3.33;;;17.60;70.00;;;;;;5034315;28;20049;-53
2022/10/22 08:16:08;;;;;;;5.78;3.08;;;17.60;69.90;;;;;;5044009;28;20053;-48
2022/10/22 08:18:37;;;;;;;5.47;2.97;;;17.60;70.00;;;;;;5035611;28;20049;-52
2022/10/22 08:21:04;;;;;;;11.10;3.83;;;17.60;70.00;;;;;;5042945;28;20520;-51
2022/10/22 08:23:33;;;;;;;6.40;2.90;;;17.70;70.10;;;;;;5035688;28;20068;-53
2022/10/22 08:26:01;;;;;;;4.47;2.10;;;17.70;70.00;;;;;;5044777;28;20057;-54
2022/10/22 08:28:35;;;;;;;7.00;2.38;;;17.70;69.80;;;;;;5043603;28;20061;-53
2022/10/22 08:31:03;;;;;;;6.72;2.03;;;17.80;69.50;;;;;;5037934;28;20048;-53
2022/10/22 08:33:30;;;;;;;3.78;1.67;;;17.80;69.20;;;;;;5042584;28;20053;-52
2022/10/22 08:35:57;;;;;;;11.98;1.95;;;17.80;68.80;;;;;;5044118;28;20052;-52
2022/10/22 08:38:24;;;;;;;5.18;2.03;;;17.90;68.60;;;;;;5043831;28;20500;-54
2022/10/22 08:40:54;;;;;;;11.57;1.40;;;17.90;68.40;;;;;;5042765;28;20052;-53
2022/10/22 08:43:46;;;;;;;17.15;7.72;;;17.90;68.10;;;;;;5042585;28;20053;-52
2022/10/22 08:46:29;;;;;;;7.22;2.55;;;17.90;67.90;;;;;;5047951;28;20492;-51
2022/10/22 08:49:00;;;;;;;5.80;1.60;;;17.90;67.70;;;;;;5048478;28;20053;-52
2022/10/22 08:51:30;;;;;;;9.13;1.33;;;18.00;67.40;;;;;;5046008;28;20055;-48
2022/10/22 08:54:17;;;;;;;16.02;1.70;;;18.00;67.40;;;;;;5048204;28;20053;-52
2022/10/22 08:56:47;;;;;;;4.30;1.65;;;18.00;66.70;;;;;;5043305;28;20068;-52
2022/10/22 08:59:22;;;;;;;8.45;1.90;;;18.10;67.10;;;;;;5039025;28;20080;-53
2022/10/22 09:01:53;;;;;;;4.22;1.60;;;18.10;66.90;;;;;;5031373;28;20049;-51
2022/10/22 09:04:25;;;;;;;6.53;1.63;;;18.10;66.80;;;;;;5025401;28;20064;-53
2022/10/22 09:06:55;;;;;;;10.15;1.73;;;18.20;66.70;;;;;;5058764;28;20512;-54
2022/10/22 09:09:25;;;;;;;5.43;1.60;;;18.20;66.80;;;;;;5055742;28;20057;-50
2022/10/22 09:11:55;;;;;;;6.28;1.48;;;18.30;66.60;;;;;;5047901;28;20053;-53
2022/10/22 09:14:25;;;;;;;6.80;1.60;;;18.30;66.50;;;;;;5047746;28;20063;-53
2022/10/22 09:17:11;;;;;;;6.15;1.38;;;18.40;66.30;;;;;;5037441;28;20053;-52
2022/10/22 09:19:45;;;;;;;4.82;1.20;;;18.50;65.90;;;;;;5040334;28;20060;-52
2022/10/22 09:22:23;;;;;;;6.13;1.30;;;18.50;65.70;;;;;;5041177;28;20067;-53
2022/10/22 09:24:57;;;;;;;5.15;1.10;;;18.60;65.40;;;;;;5058030;28;20056;-53
2022/10/22 09:27:28;;;;;;;7.05;1.83;;;18.70;65.00;;;;;;5050346;28;20056;-50
2022/10/22 09:29:57;;;;;;;6.53;1.30;;;18.70;64.50;;;;;;5041215;28;20049;-53
2022/10/22 09:32:26;;;;;;;6.80;1.40;;;18.80;64.20;;;;;;5040126;28;20416;-53
2022/10/22 09:34:57;;;;;;;5.97;1.15;;;18.80;63.90;;;;;;5042821;28;20059;-50
2022/10/22 09:37:27;;;;;;;5.15;1.40;;;18.80;63.50;;;;;;5042016;28;20511;-53
2022/10/22 09:39:57;;;;;;;4.80;1.55;;;18.80;62.90;;;;;;5055674;28;20063;-54
2022/10/22 09:42:25;;;;;;;4.22;1.20;;;18.80;63.10;;;;;;5047902;28;20052;-52
2022/10/22 09:44:54;;;;;;;5.80;1.60;;;18.90;63.00;;;;;;5037071;28;20060;-51
2022/10/22 09:47:36;;;;;;;3.22;1.30;;;18.90;62.50;;;;;;5030901;28;20376;-49
2022/10/22 09:50:30;;;;;;;3.05;1.08;;;18.90;62.30;;;;;;5032917;28;20057;-51
2022/10/22 09:53:05;;;;;;;9.13;1.80;;;18.90;62.50;;;;;;5024912;28;20048;-53
2022/10/22 09:55:32;;;;;;;7.80;1.65;;;18.90;62.20;;;;;;5042022;28;20053;-53
2022/10/22 09:58:00;;;;;;;6.72;1.55;;;18.90;62.30;;;;;;5043657;28;20053;-53
2022/10/22 10:00:28;;;;;;;5.63;0.90;;;18.90;62.50;;;;;;5032474;28;20492;-53
2022/10/22 10:02:58;;;;;;;8.60;1.00;;;18.90;62.60;;;;;;5036287;28;20048;-52
2022/10/22 10:05:28;;;;;;;7.65;1.63;;;18.90;62.50;;;;;;5031229;28;20484;-51
2022/10/22 10:07:56;;;;;;;5.07;1.27;;;19.00;62.40;;;;;;5038432;28;20052;-52
2022/10/22 10:10:41;;;;;;;6.38;1.77;;;19.00;62.40;;;;;;5041408;28;20064;-53
2022/10/22 10:13:25;;;;;;;7.30;2.03;;;19.00;61.90;;;;;;5050733;28;20053;-54
2022/10/22 10:15:58;;;;;;;6.32;1.70;;;19.00;61.50;;;;;;5044427;28;20049;-53
2022/10/22 10:18:38;;;;;;;7.03;2.40;;;19.00;61.60;;;;;;5030850;28;20062;-52
2022/10/22 10:21:13;;;;;;;13.27;1.50;;;19.10;61.60;;;;;;5030279;28;20056;-53
2022/10/22 10:23:50;;;;;;;3.80;1.38;;;19.10;61.50;;;;;;5028505;28;20587;-53
2022/10/22 10:26:22;;;;;;;5.72;1.83;;;19.10;61.50;;;;;;5034641;28;20428;-53
2022/10/22 10:29:06;;;;;;;6.50;1.58;;;19.10;61.60;;;;;;5050933;28;20052;-52
2022/10/22 10:31:44;;;;;;;7.75;1.60;;;19.20;61.40;;;;;;5036231;28;20045;-50
2022/10/22 10:34:20;;;;;;;3.55;0.90;;;19.20;61.20;;;;;;5030969;28;20497;-52
2022/10/22 10:36:57;;;;;;;5.78;1.50;;;19.20;61.10;;;;;;5039031;28;20049;-52
2022/10/22 10:39:29;;;;;;;6.57;1.35;;;19.30;61.00;;;;;;5040328;28;20056;-49
2022/10/22 10:42:01;;;;;;;4.65;1.17;;;19.30;60.70;;;;;;5038172;28;20056;-53
2022/10/22 10:44:53;;;;;;;4.82;1.05;;;19.40;60.70;;;;;;5033157;28;20052;-52
2022/10/22 10:47:46;;;;;;;5.15;1.30;;;19.40;60.40;;;;;;5039957;28;20048;-52
2022/10/22 10:50:24;;;;;;;6.25;1.00;;;19.40;59.90;;;;;;5042061;28;20051;-53
2022/10/22 10:53:01;;;;;;;7.95;1.58;;;19.40;59.80;;;;;;5054496;28;20063;-52
2022/10/22 10:55:32;;;;;;;6.05;2.17;;;19.40;59.80;;;;;;5043545;28;20060;-49
2022/10/22 10:58:10;;;;;;;6.28;3.13;;;19.50;60.00;;;;;;5032597;28;20408;-53
2022/10/22 11:00:47;;;;;;;18.15;12.15;;;19.50;59.60;;;;;;5037429;28;20497;-50
2022/10/22 11:03:40;;;;;;;15.38;10.38;;;19.50;59.70;;;;;;5044512;28;20053;-51
2022/10/22 11:06:12;;;;;;;15.85;10.02;;;19.50;59.60;;;;;;5035555;28;20052;-53
2022/10/22 11:08:44;;;;;;;24.17;13.65;;;19.60;59.60;;;;;;5035832;28;20053;-53
2022/10/22 11:11:16;;;;;;;10.20;6.18;;;19.60;59.40;;;;;;5037200;28;20056;-48
2022/10/22 11:13:50;;;;;;;11.02;4.30;;;19.60;59.30;;;;;;5039041;28;20059;-52
2022/10/22 11:16:23;;;;;;;12.20;5.88;;;19.60;59.10;;;;;;5036167;28;20401;-54
2022/10/22 11:18:56;;;;;;;6.35;4.22;;;19.60;59.10;;;;;;5040499;28;20053;-53
2022/10/22 11:21:31;;;;;;;10.07;4.10;;;19.70;58.90;;;;;;5035203;28;20064;-51
2022/10/22 11:24:08;;;;;;;7.80;3.08;;;19.70;58.70;;;;;;5039254;28;20471;-53
2022/10/22 11:26:41;;;;;;;6.10;2.30;;;19.70;58.80;;;;;;5040470;28;20048;-53
2022/10/22 11:29:15;;;;;;;6.57;2.00;;;19.70;58.80;;;;;;5043122;28;20386;-53
2022/10/22 11:31:44;;;;;;;3.45;1.40;;;19.70;58.90;;;;;;5043997;28;20056;-53
2022/10/22 11:34:18;;;;;;;6.35;3.72;;;19.70;59.00;;;;;;5038680;28;20053;-51
2022/10/22 11:36:48;;;;;;;5.35;2.75;;;19.70;58.90;;;;;;5048095;28;20052;-53
2022/10/22 11:39:34;;;;;;;5.75;2.30;;;19.80;58.80;;;;;;5037326;28;20417;-53
2022/10/22 11:42:04;;;;;;;4.53;1.45;;;19.80;58.70;;;;;;5047074;28;20060;-53
2022/10/22 11:44:33;;;;;;;4.22;1.50;;;19.80;58.70;;;;;;5057744;28;20052;-52
2022/10/22 11:47:16;;;;;;;3.60;1.10;;;19.80;58.70;;;;;;5043036;28;20510;-53
2022/10/22 11:49:47;;;;;;;6.47;1.67;;;19.80;58.40;;;;;;5022433;28;20140;-52
2022/10/22 11:52:37;;;;;;;3.25;1.13;;;19.80;58.60;;;;;;5035995;28;20052;-52
2022/10/22 11:55:30;;;;;;;3.42;1.13;;;19.80;58.40;;;;;;5040475;28;20067;-49
2022/10/22 11:58:00;;;;;;;7.97;0.93;;;19.90;58.40;;;;;;5043698;28;20049;-53
2022/10/22 12:00:40;;;;;;;7.75;1.30;;;19.90;58.60;;;;;;5046707;28;20527;-51
2022/10/22 12:03:17;;;;;;;5.70;1.30;;;19.90;58.50;;;;;;5049661;28;20065;-53
2022/10/22 12:05:45;;;;;;;4.05;1.02;;;19.90;58.60;;;;;;5036571;28;20487;-53
2022/10/22 12:08:24;;;;;;;5.05;1.02;;;19.90;58.80;;;;;;5041528;28;20392;-53
2022/10/22 12:11:04;;;;;;;5.47;0.98;;;19.90;58.60;;;;;;5045194;28;20057;-53
2022/10/22 12:13:33;;;;;;;4.70;1.00;;;19.90;58.60;;;;;;5056889;28;20480;-52
2022/10/22 12:16:03;;;;;;;2.65;1.00;;;20.00;58.60;;;;;;5063302;28;20499;-53
2022/10/22 12:18:39;;;;;;;5.05;0.80;;;20.00;58.40;;;;;;5043573;28;20397;-53
2022/10/22 12:21:09;;;;;;;2.13;1.00;;;20.00;58.30;;;;;;5044741;28;20056;-52
2022/10/22 12:23:38;;;;;;;4.85;1.30;;;20.00;58.30;;;;;;5045228;28;20381;-51
2022/10/22 12:26:05;;;;;;;5.25;0.95;;;20.00;58.20;;;;;;5049621;28;20060;-53
2022/10/22 12:28:39;;;;;;;4.28;0.90;;;20.00;57.90;;;;;;5036970;28;20065;-54
2022/10/22 12:31:14;;;;;;;5.63;0.80;;;20.00;57.60;;;;;;5044565;28;20416;-53
2022/10/22 12:33:42;;;;;;;4.75;0.90;;;20.00;57.50;;;;;;5044848;28;20859;-53
2022/10/22 12:36:16;;;;;;;4.95;0.88;;;20.00;57.00;;;;;;5047484;28;20052;-49
2022/10/22 12:38:47;;;;;;;;;;;20.00;56.60;;;;;;5046723;28;20060;-47
2022/10/22 12:41:14;;;;;;;5.40;1.13;;;20.00;57.20;;;;;;5041986;28;19925;-52
2022/10/22 12:43:41;;;;;;;5.47;1.38;;;20.00;56.70;;;;;;5046016;28;20496;-52
2022/10/22 12:46:12;;;;;;;4.70;1.05;;;20.00;57.00;;;;;;5045682;28;20064;-53
2022/10/22 12:48:43;;;;;;;2.45;0.95;;;20.00;57.40;;;;;;5046130;28;20049;-53
2022/10/22 12:51:17;;;;;;;6.53;1.15;;;20.00;57.50;;;;;;5041592;28;20057;-50
2022/10/22 12:53:48;;;;;;;6.82;1.20;;;20.00;56.20;;;;;;5043956;28;20065;-48
2022/10/22 12:56:22;;;;;;;4.88;1.10;;;20.00;56.60;;;;;;5046129;28;20053;-52
2022/10/22 12:58:55;;;;;;;6.38;1.50;;;20.00;56.00;;;;;;5044486;28;20049;-51
2022/10/22 13:01:22;;;;;;;6.30;1.27;;;20.10;55.70;;;;;;5041454;28;20052;-52
2022/10/22 13:03:51;;;;;;;2.50;0.88;;;20.10;56.10;;;;;;5046433;28;20049;-52